createdAt,value
2023-06-10T00:00:57.085Z,99.90
2023-06-10T00:03:25.867Z,99.90
2023-06-10T00:05:55.444Z,99.90
2023-06-10T00:08:24.535Z,99.90
2023-06-10T00:10:54.279Z,99.90
2023-06-10T00:13:22.546Z,99.90
2023-06-10T00:15:51.433Z,99.90
2023-06-10T00:18:45.539Z,99.90
2023-06-10T00:21:14.640Z,99.90
2023-06-10T00:23:43.064Z,99.90
2023-06-10T00:26:12.918Z,99.90
2023-06-10T00:28:43.490Z,99.90
2023-06-10T00:31:14.231Z,99.90
2023-06-10T00:33:44.568Z,99.90
2023-06-10T00:36:12.772Z,99.90
2023-06-10T00:38:42.094Z,99.90
2023-06-10T00:41:16.624Z,99.90
2023-06-10T00:43:46.436Z,99.90
2023-06-10T00:46:18.505Z,99.90
2023-06-10T00:48:47.941Z,99.90
2023-06-10T00:51:16.310Z,99.90
2023-06-10T00:53:46.512Z,99.90
2023-06-10T00:56:16.817Z,99.90
2023-06-10T00:58:45.577Z,99.90
2023-06-10T01:01:14.716Z,99.90
2023-06-10T01:03:43.552Z,99.90
2023-06-10T01:06:21.192Z,99.90
2023-06-10T01:08:58.529Z,99.90
2023-06-10T01:11:34.008Z,99.90
2023-06-10T01:14:03.521Z,99.90
2023-06-10T01:16:31.941Z,99.90
2023-06-10T01:19:03.448Z,99.90
2023-06-10T01:21:35.034Z,99.90
2023-06-10T01:24:08.584Z,99.90
2023-06-10T01:26:38.553Z,99.90
2023-06-10T01:29:12.488Z,99.90
2023-06-10T01:31:47.589Z,99.90
2023-06-10T01:34:24.373Z,99.90
2023-06-10T01:36:56.428Z,99.90
2023-06-10T01:39:27.667Z,99.90
2023-06-10T01:42:00.561Z,99.90
2023-06-10T01:44:29.583Z,99.90
2023-06-10T01:46:57.827Z,99.90
2023-06-10T01:49:28.565Z,99.90
2023-06-10T01:52:00.544Z,99.90
2023-06-10T01:54:29.599Z,99.90
2023-06-10T01:56:57.944Z,99.90
2023-06-10T01:59:26.224Z,99.90
2023-06-10T02:01:54.368Z,99.90
2023-06-10T02:04:24.599Z,99.90
2023-06-10T02:06:54.470Z,99.90
2023-06-10T02:09:24.545Z,99.90
2023-06-10T02:11:52.856Z,99.90
2023-06-10T02:14:22.289Z,99.90
2023-06-10T02:16:56.369Z,99.90
2023-06-10T02:19:26.533Z,99.90
2023-06-10T02:21:56.507Z,99.90
2023-06-10T02:24:26.120Z,99.90
2023-06-10T02:26:55.592Z,99.90
2023-06-10T02:29:24.105Z,99.90
2023-06-10T02:31:54.557Z,99.90
2023-06-10T02:34:23.539Z,99.90
2023-06-10T02:36:52.495Z,99.90
2023-06-10T02:39:26.607Z,99.90
2023-06-10T02:41:55.590Z,99.90
2023-06-10T02:44:24.093Z,99.90
2023-06-10T02:46:56.404Z,99.90
2023-06-10T02:49:28.782Z,99.90
2023-06-10T02:52:00.655Z,99.90
2023-06-10T02:54:30.396Z,99.90
2023-06-10T02:56:59.678Z,99.90
2023-06-10T02:59:31.548Z,99.90
2023-06-10T03:02:02.418Z,99.90
2023-06-10T03:04:36.089Z,99.90
2023-06-10T03:07:11.656Z,99.90
2023-06-10T03:09:43.237Z,99.90
2023-06-10T03:12:15.589Z,99.90
2023-06-10T03:14:49.637Z,99.90
2023-06-10T03:17:20.217Z,99.90
2023-06-10T03:19:48.569Z,99.90
2023-06-10T03:22:18.472Z,99.90
2023-06-10T03:24:56.203Z,99.90
2023-06-10T03:27:25.620Z,99.90
2023-06-10T03:29:57.072Z,99.90
2023-06-10T03:32:25.534Z,99.90
2023-06-10T03:34:59.580Z,99.90
2023-06-10T03:37:32.442Z,99.90
2023-06-10T03:40:06.899Z,99.90
2023-06-10T03:42:37.175Z,99.90
2023-06-10T03:45:07.786Z,99.90
2023-06-10T03:47:38.302Z,99.90
2023-06-10T03:50:12.377Z,99.90
2023-06-10T03:52:42.804Z,99.90
2023-06-10T03:55:14.828Z,99.90
2023-06-10T03:57:47.057Z,99.90
2023-06-10T04:00:20.415Z,99.90
2023-06-10T04:02:51.799Z,99.90
2023-06-10T04:05:32.429Z,99.90
2023-06-10T04:08:03.596Z,99.90
2023-06-10T04:10:33.199Z,99.90
2023-06-10T04:13:04.443Z,99.90
2023-06-10T04:15:38.605Z,99.90
2023-06-10T04:18:11.649Z,99.90
2023-06-10T04:20:40.137Z,99.90
2023-06-10T04:23:08.770Z,99.90
2023-06-10T04:25:40.613Z,99.90
2023-06-10T04:28:08.998Z,99.90
2023-06-10T04:30:38.514Z,99.90
2023-06-10T04:33:10.508Z,99.90
2023-06-10T04:35:40.700Z,99.90
2023-06-10T04:38:11.017Z,99.90
2023-06-10T04:40:41.735Z,99.90
2023-06-10T04:43:11.005Z,99.90
2023-06-10T04:45:39.721Z,99.90
2023-06-10T04:48:09.767Z,99.90
2023-06-10T04:50:38.618Z,99.90
2023-06-10T04:53:08.665Z,99.90
2023-06-10T04:55:40.780Z,99.90
2023-06-10T04:58:16.182Z,99.90
2023-06-10T05:00:44.944Z,99.90
2023-06-10T05:03:13.805Z,99.90
2023-06-10T05:05:42.697Z,99.90
2023-06-10T05:08:10.884Z,99.90
2023-06-10T05:10:44.256Z,99.90
2023-06-10T05:13:12.452Z,99.90
2023-06-10T05:15:45.563Z,99.90
2023-06-10T05:18:14.213Z,99.90
2023-06-10T05:20:42.848Z,99.90
2023-06-10T05:23:12.763Z,99.90
2023-06-10T05:25:42.839Z,99.90
2023-06-10T05:28:13.564Z,99.90
2023-06-10T05:30:47.698Z,99.90
2023-06-10T05:33:16.712Z,99.90
2023-06-10T05:35:45.056Z,99.90
2023-06-10T05:38:17.816Z,99.90
2023-06-10T05:40:48.728Z,99.90
2023-06-10T05:43:17.827Z,99.90
2023-06-10T05:45:46.092Z,99.90
2023-06-10T05:48:14.747Z,99.90
2023-06-10T05:50:44.309Z,99.90
2023-06-10T05:53:16.712Z,99.90
2023-06-10T05:55:45.142Z,99.90
2023-06-10T05:58:16.760Z,99.90
2023-06-10T06:00:45.103Z,99.90
2023-06-10T06:03:14.648Z,99.90
2023-06-10T06:05:44.219Z,99.90
2023-06-10T06:08:14.483Z,99.90
2023-06-10T06:10:43.656Z,99.90
2023-06-10T06:13:11.769Z,99.90
2023-06-10T06:15:41.762Z,99.90
2023-06-10T06:18:12.592Z,99.90
2023-06-10T06:20:41.213Z,99.90
2023-06-10T06:23:11.191Z,99.90
2023-06-10T06:25:40.366Z,99.90
2023-06-10T06:28:12.857Z,99.90
2023-06-10T06:30:42.537Z,99.90
2023-06-10T06:33:11.014Z,99.90
2023-06-10T06:35:39.510Z,99.90
2023-06-10T06:38:07.849Z,99.90
2023-06-10T06:40:39.385Z,99.90
2023-06-10T06:43:10.267Z,99.90
2023-06-10T06:45:59.644Z,99.90
2023-06-10T06:48:31.711Z,99.90
2023-06-10T06:51:00.552Z,99.90
2023-06-10T06:53:31.684Z,99.90
2023-06-10T06:56:01.422Z,99.90
2023-06-10T06:58:32.421Z,99.90
2023-06-10T07:01:02.067Z,99.90
2023-06-10T07:03:30.260Z,99.90
2023-06-10T07:05:58.774Z,99.90
2023-06-10T07:08:27.000Z,99.90
2023-06-10T07:11:00.816Z,99.90
2023-06-10T07:13:29.072Z,99.90
2023-06-10T07:15:57.212Z,99.90
2023-06-10T07:18:26.828Z,99.90
2023-06-10T07:20:55.086Z,99.90
2023-06-10T07:23:23.345Z,99.90
2023-06-10T07:25:51.851Z,99.90
2023-06-10T07:28:20.121Z,99.90
2023-06-10T07:30:48.570Z,99.90
2023-06-10T07:33:17.739Z,99.90
2023-06-10T07:35:47.281Z,99.90
2023-06-10T07:38:15.563Z,99.90
2023-06-10T07:40:48.375Z,99.90
2023-06-10T07:43:16.655Z,99.90
2023-06-10T07:45:44.813Z,99.90
2023-06-10T07:48:14.243Z,99.90
2023-06-10T07:50:42.565Z,99.90
2023-06-10T07:53:12.300Z,99.90
2023-06-10T07:55:43.201Z,99.90
2023-06-10T07:58:11.730Z,99.90
2023-06-10T08:00:40.836Z,99.90
2023-06-10T08:03:10.304Z,99.90
2023-06-10T08:05:38.677Z,99.90
2023-06-10T08:08:07.760Z,99.90
2023-06-10T08:10:37.256Z,99.90
2023-06-10T08:13:05.797Z,99.90
2023-06-10T08:15:34.038Z,99.90
2023-06-10T08:18:02.439Z,99.90
2023-06-10T08:20:30.999Z,99.90
2023-06-10T08:22:59.313Z,99.90
2023-06-10T08:25:27.674Z,99.90
2023-06-10T08:28:03.658Z,99.90
2023-06-10T08:30:31.911Z,99.90
2023-06-10T08:33:00.317Z,99.80
2023-06-10T08:35:28.546Z,99.90
2023-06-10T08:38:00.921Z,99.90
2023-06-10T08:40:29.166Z,99.90
2023-06-10T08:43:08.170Z,99.90
2023-06-10T08:45:38.010Z,99.90
2023-06-10T08:48:08.594Z,99.90
2023-06-10T08:50:40.180Z,99.70
2023-06-10T08:53:14.348Z,99.60
2023-06-10T08:55:44.861Z,99.20
2023-06-10T08:58:15.793Z,99.10
2023-06-10T09:00:47.251Z,98.80
2023-06-10T09:03:15.954Z,99.00
2023-06-10T09:05:45.852Z,98.70
2023-06-10T09:08:14.415Z,97.50
2023-06-10T09:10:43.141Z,97.40
2023-06-10T09:13:13.658Z,98.20
2023-06-10T09:15:43.596Z,97.80
2023-06-10T09:18:12.174Z,97.70
2023-06-10T09:20:41.193Z,97.90
2023-06-10T09:23:09.595Z,97.00
2023-06-10T09:25:39.400Z,96.90
2023-06-10T09:28:16.441Z,96.60
2023-06-10T09:30:46.087Z,96.10
2023-06-10T09:33:18.825Z,96.10
2023-06-10T09:35:50.948Z,95.90
2023-06-10T09:38:25.920Z,95.60
2023-06-10T09:40:55.547Z,95.30
2023-06-10T09:43:24.266Z,95.20
2023-06-10T09:45:55.142Z,94.50
2023-06-10T09:48:24.987Z,94.80
2023-06-10T09:50:53.313Z,94.20
2023-06-10T09:53:22.828Z,93.70
2023-06-10T09:55:51.826Z,94.10
2023-06-10T09:58:20.237Z,93.20
2023-06-10T10:00:56.561Z,92.80
2023-06-10T10:03:25.097Z,93.40
2023-06-10T10:06:01.663Z,93.40
2023-06-10T10:08:30.224Z,92.80
2023-06-10T10:11:00.466Z,92.40
2023-06-10T10:13:30.370Z,92.90
2023-06-10T10:16:03.929Z,92.80
2023-06-10T10:18:34.012Z,92.30
2023-06-10T10:21:08.068Z,91.60
2023-06-10T10:23:42.171Z,91.60
2023-06-10T10:26:12.822Z,91.70
2023-06-10T10:28:49.443Z,92.00
2023-06-10T10:31:23.007Z,92.30
2023-06-10T10:33:58.240Z,91.50
2023-06-10T10:36:27.353Z,91.50
2023-06-10T10:38:56.410Z,91.50
2023-06-10T10:41:27.556Z,91.40
2023-06-10T10:43:57.076Z,88.50
2023-06-10T10:46:26.691Z,90.20
2023-06-10T10:48:58.882Z,90.10
2023-06-10T10:51:30.595Z,89.50
2023-06-10T10:54:16.015Z,88.00
2023-06-10T10:57:21.487Z,90.00
2023-06-10T10:59:57.942Z,89.30
2023-06-10T11:02:40.056Z,87.30
2023-06-10T11:05:10.450Z,84.40
2023-06-10T11:07:40.080Z,85.30
2023-06-10T11:10:11.277Z,83.80
2023-06-10T11:12:46.047Z,84.40
2023-06-10T11:15:14.559Z,83.70
2023-06-10T11:18:12.905Z,85.80
2023-06-10T11:21:01.572Z,86.70
2023-06-10T11:23:45.731Z,84.60
2023-06-10T11:26:34.022Z,85.20
2023-06-10T11:29:11.736Z,85.70
2023-06-10T11:31:49.451Z,86.80
2023-06-10T11:34:26.069Z,86.00
2023-06-10T11:36:57.216Z,86.00
2023-06-10T11:39:28.022Z,86.20
2023-06-10T11:41:57.163Z,86.60
2023-06-10T11:44:33.401Z,86.40
2023-06-10T11:47:01.581Z,85.10
2023-06-10T11:49:31.211Z,86.00
2023-06-10T11:51:59.551Z,84.70
2023-06-10T11:54:28.008Z,85.10
2023-06-10T11:57:01.385Z,85.00
2023-06-10T11:59:30.159Z,85.60
2023-06-10T12:01:59.045Z,84.80
2023-06-10T12:04:28.288Z,84.00
2023-06-10T12:06:58.006Z,81.80
2023-06-10T12:09:34.003Z,82.40
2023-06-10T12:12:04.429Z,83.90
2023-06-10T12:14:57.635Z,82.40
2023-06-10T12:17:38.738Z,83.80
2023-06-10T12:20:09.553Z,80.60
2023-06-10T12:22:46.170Z,81.60
2023-06-10T12:25:15.443Z,80.20
2023-06-10T12:27:54.920Z,79.80
2023-06-10T12:30:24.109Z,79.50
2023-06-10T12:32:53.621Z,74.90
2023-06-10T12:35:26.003Z,75.70
2023-06-10T12:38:00.635Z,76.70
2023-06-10T12:40:33.937Z,78.60
2023-06-10T12:43:03.248Z,78.30
2023-06-10T12:45:32.977Z,77.00
2023-06-10T12:48:10.275Z,77.50
2023-06-10T12:50:40.141Z,78.10
2023-06-10T12:53:15.023Z,77.60
2023-06-10T12:55:43.572Z,77.40
2023-06-10T12:58:12.429Z,77.90
2023-06-10T13:00:40.998Z,78.10
2023-06-10T13:03:10.502Z,77.60
2023-06-10T13:05:39.971Z,77.60
2023-06-10T13:08:12.069Z,77.20
2023-06-10T13:10:40.512Z,76.20
2023-06-10T13:13:12.030Z,76.60
2023-06-10T13:15:43.631Z,76.40
2023-06-10T13:18:13.383Z,76.60
2023-06-10T13:20:42.096Z,73.80
2023-06-10T13:23:11.931Z,72.70
2023-06-10T13:25:46.028Z,71.50
2023-06-10T13:28:14.983Z,68.80
2023-06-10T13:30:43.972Z,66.00
2023-06-10T13:33:12.301Z,65.00
2023-06-10T13:35:40.633Z,63.80
2023-06-10T13:38:09.314Z,60.50
2023-06-10T13:40:41.924Z,58.40
2023-06-10T13:43:11.046Z,57.00
2023-06-10T13:45:39.274Z,55.60
2023-06-10T13:48:08.192Z,52.60
2023-06-10T13:50:36.563Z,51.50
2023-06-10T13:53:05.999Z,50.50
2023-06-10T13:55:34.420Z,49.50
2023-06-10T13:58:04.134Z,47.50
2023-06-10T14:00:32.720Z,46.80
2023-06-10T14:03:03.428Z,46.40
2023-06-10T14:05:32.332Z,46.10
2023-06-10T14:08:02.396Z,45.70
2023-06-10T14:10:30.899Z,46.00
2023-06-10T14:12:59.264Z,45.70
2023-06-10T14:15:29.164Z,45.70
2023-06-10T14:17:57.390Z,45.50
2023-06-10T14:20:29.527Z,45.20
2023-06-10T14:22:57.888Z,45.70
2023-06-10T14:25:26.154Z,46.10
2023-06-10T14:27:54.496Z,46.30
2023-06-10T14:30:22.847Z,46.00
2023-06-10T14:32:52.608Z,46.20
2023-06-10T14:35:28.680Z,46.30
2023-06-10T14:37:57.027Z,46.30
2023-06-10T14:40:28.092Z,46.10
2023-06-10T14:42:56.289Z,45.10
2023-06-10T14:45:25.665Z,45.30
2023-06-10T14:47:57.179Z,44.70
2023-06-10T14:50:25.443Z,45.00
2023-06-10T14:52:53.955Z,44.50
2023-06-10T14:55:27.448Z,44.80
2023-06-10T14:57:59.302Z,45.20
2023-06-10T15:00:27.772Z,45.40
2023-06-10T15:02:59.129Z,44.90
2023-06-10T15:05:29.585Z,44.70
2023-06-10T15:07:57.897Z,44.80
2023-06-10T15:10:26.254Z,45.10
2023-06-10T15:12:57.449Z,45.30
2023-06-10T15:15:26.171Z,45.60
2023-06-10T15:18:01.472Z,45.60
2023-06-10T15:20:30.294Z,45.80
2023-06-10T15:22:58.879Z,45.30
2023-06-10T15:25:31.508Z,44.60
2023-06-10T15:28:00.353Z,43.80
2023-06-10T15:30:31.319Z,44.70
2023-06-10T15:33:02.858Z,44.90
2023-06-10T15:35:32.761Z,45.30
2023-06-10T15:38:01.063Z,45.30
2023-06-10T15:40:31.675Z,45.30
2023-06-10T15:43:05.864Z,45.60
2023-06-10T15:45:35.961Z,44.90
2023-06-10T15:48:07.532Z,45.00
2023-06-10T15:50:36.266Z,45.30
2023-06-10T15:53:04.616Z,45.30
2023-06-10T15:55:37.603Z,45.40
2023-06-10T15:58:08.889Z,45.70
2023-06-10T16:00:37.168Z,45.70
2023-06-10T16:03:09.670Z,46.40
2023-06-10T16:05:37.931Z,47.90
2023-06-10T16:08:06.765Z,48.50
2023-06-10T16:10:34.956Z,49.40
2023-06-10T16:13:04.078Z,49.50
2023-06-10T16:15:32.276Z,50.40
2023-06-10T16:18:00.563Z,51.00
2023-06-10T16:20:30.267Z,50.90
2023-06-10T16:22:58.448Z,51.10
2023-06-10T16:25:26.714Z,51.70
2023-06-10T16:27:54.866Z,51.70
2023-06-10T16:30:23.104Z,51.90
2023-06-10T16:32:51.594Z,51.50
2023-06-10T16:35:20.245Z,50.90
2023-06-10T16:37:49.944Z,51.00
2023-06-10T16:40:21.286Z,51.30
2023-06-10T16:42:49.604Z,52.00
2023-06-10T16:45:17.940Z,53.10
2023-06-10T16:47:46.455Z,53.90
2023-06-10T16:50:14.728Z,55.30
2023-06-10T16:52:43.279Z,56.80
2023-06-10T16:55:13.367Z,57.70
2023-06-10T16:57:42.026Z,59.00
2023-06-10T17:00:11.526Z,60.30
2023-06-10T17:02:39.919Z,61.50
2023-06-10T17:05:09.418Z,61.90
2023-06-10T17:07:37.951Z,63.00
2023-06-10T17:10:09.451Z,63.40
2023-06-10T17:12:39.165Z,63.80
2023-06-10T17:15:09.164Z,63.90
2023-06-10T17:17:41.099Z,64.00
2023-06-10T17:20:10.532Z,65.20
2023-06-10T17:22:40.407Z,66.10
2023-06-10T17:25:09.528Z,67.00
2023-06-10T17:27:39.233Z,67.40
2023-06-10T17:30:08.878Z,68.80
2023-06-10T17:32:38.414Z,69.80
2023-06-10T17:35:07.293Z,70.90
2023-06-10T17:37:35.652Z,71.50
2023-06-10T17:40:04.016Z,71.30
2023-06-10T17:42:32.301Z,71.40
2023-06-10T17:45:05.563Z,71.90
2023-06-10T17:47:35.576Z,72.60
2023-06-10T17:50:03.958Z,73.20
2023-06-10T17:52:32.200Z,72.90
2023-06-10T17:55:02.055Z,73.40
2023-06-10T17:57:33.402Z,73.90
2023-06-10T18:00:02.993Z,74.50
2023-06-10T18:02:36.576Z,75.10
2023-06-10T18:05:10.040Z,75.50
2023-06-10T18:07:38.820Z,75.60
2023-06-10T18:10:08.174Z,77.00
2023-06-10T18:12:37.266Z,77.10
2023-06-10T18:15:09.671Z,77.50
2023-06-10T18:17:38.262Z,77.50
2023-06-10T18:20:07.409Z,77.70
2023-06-10T18:22:37.260Z,77.80
2023-06-10T18:25:06.390Z,78.10
2023-06-10T18:27:38.304Z,78.40
2023-06-10T18:30:10.412Z,78.70
2023-06-10T18:32:40.034Z,80.30
2023-06-10T18:35:09.012Z,83.20
2023-06-10T18:37:42.281Z,84.70
2023-06-10T18:40:11.538Z,85.70
2023-06-10T18:42:40.159Z,86.20
2023-06-10T18:45:11.641Z,87.00
2023-06-10T18:47:56.809Z,88.10
2023-06-10T18:50:26.273Z,88.60
2023-06-10T18:52:55.238Z,89.40
2023-06-10T18:55:24.273Z,90.10
2023-06-10T18:57:52.590Z,90.40
2023-06-10T19:00:22.522Z,90.60
2023-06-10T19:02:50.990Z,91.00
2023-06-10T19:05:20.312Z,91.20
2023-06-10T19:07:48.441Z,91.50
2023-06-10T19:10:16.959Z,92.00
2023-06-10T19:12:47.307Z,92.20
2023-06-10T19:15:16.913Z,92.50
2023-06-10T19:17:47.811Z,92.90
2023-06-10T19:20:16.043Z,93.20
2023-06-10T19:22:45.322Z,93.40
2023-06-10T19:25:13.907Z,93.80
2023-06-10T19:27:42.294Z,94.00
2023-06-10T19:30:14.094Z,94.30
2023-06-10T19:32:43.069Z,94.50
2023-06-10T19:35:13.312Z,94.90
2023-06-10T19:37:41.538Z,95.60
2023-06-10T19:40:14.391Z,95.90
2023-06-10T19:42:42.712Z,96.30
2023-06-10T19:45:11.858Z,96.60
2023-06-10T19:47:40.537Z,97.00
2023-06-10T19:50:09.822Z,97.40
2023-06-10T19:52:41.554Z,98.00
2023-06-10T19:55:10.955Z,98.80
2023-06-10T19:57:39.617Z,99.50
2023-06-10T20:00:10.047Z,99.90
2023-06-10T20:02:43.284Z,99.90
2023-06-10T20:05:11.787Z,99.90
2023-06-10T20:07:41.772Z,99.90
2023-06-10T20:10:11.316Z,99.90
2023-06-10T20:12:39.574Z,99.90
2023-06-10T20:15:10.142Z,99.90
2023-06-10T20:17:39.336Z,99.90
2023-06-10T20:20:08.600Z,99.90
2023-06-10T20:22:36.895Z,99.90
2023-06-10T20:25:07.233Z,99.90
2023-06-10T20:27:36.302Z,99.90
2023-06-10T20:30:04.799Z,99.90
2023-06-10T20:32:36.615Z,99.90
2023-06-10T20:35:05.134Z,99.90
2023-06-10T20:37:33.334Z,99.90
2023-06-10T20:40:01.640Z,99.90
2023-06-10T20:42:31.306Z,99.90
2023-06-10T20:45:00.794Z,99.90
2023-06-10T20:47:28.989Z,99.90
2023-06-10T20:49:57.476Z,99.90
2023-06-10T20:52:25.713Z,99.90
2023-06-10T20:54:54.168Z,99.90
2023-06-10T20:57:22.892Z,99.90
2023-06-10T20:59:52.662Z,99.90
2023-06-10T21:02:23.335Z,99.90
2023-06-10T21:04:52.801Z,99.90
2023-06-10T21:07:20.952Z,99.90
2023-06-10T21:09:49.145Z,99.90
2023-06-10T21:12:17.453Z,99.90
2023-06-10T21:14:45.706Z,99.90
2023-06-10T21:17:21.157Z,99.90
2023-06-10T21:19:50.615Z,99.90
2023-06-10T21:22:18.954Z,99.90
2023-06-10T21:24:47.395Z,99.90
2023-06-10T21:27:19.479Z,99.90
2023-06-10T21:29:48.940Z,99.90
2023-06-10T21:32:22.901Z,99.90
2023-06-10T21:34:56.797Z,99.90
2023-06-10T21:37:24.916Z,99.90
2023-06-10T21:39:54.350Z,99.90
2023-06-10T21:42:22.655Z,99.90
2023-06-10T21:44:52.106Z,99.90
2023-06-10T21:47:26.438Z,99.90
2023-06-10T21:49:55.011Z,99.90
2023-06-10T21:52:23.224Z,99.90
2023-06-10T21:54:53.337Z,99.90
2023-06-10T21:57:28.652Z,99.90
2023-06-10T22:00:02.152Z,99.90
2023-06-10T22:02:34.492Z,99.90
2023-06-10T22:05:03.311Z,99.90
2023-06-10T22:07:31.747Z,99.90
2023-06-10T22:10:02.519Z,99.90
2023-06-10T22:12:33.343Z,99.90
2023-06-10T22:15:01.508Z,99.90
2023-06-10T22:17:30.312Z,99.90
2023-06-10T22:20:06.518Z,99.90
2023-06-10T22:22:34.927Z,99.90
2023-06-10T22:25:04.291Z,99.90
2023-06-10T22:27:32.488Z,99.90
2023-06-10T22:30:01.892Z,99.90
2023-06-10T22:32:33.546Z,99.90
2023-06-10T22:35:07.069Z,99.90
2023-06-10T22:37:36.589Z,99.90
2023-06-10T22:40:06.347Z,99.90
2023-06-10T22:42:35.248Z,99.90
2023-06-10T22:45:03.474Z,99.90
2023-06-10T22:47:36.552Z,99.90
2023-06-10T22:50:07.120Z,99.90
2023-06-10T22:52:37.401Z,99.90
2023-06-10T22:55:06.562Z,99.90
2023-06-10T22:57:34.726Z,99.90
2023-06-10T23:00:04.279Z,99.90
2023-06-10T23:02:32.525Z,99.90
2023-06-10T23:05:06.523Z,99.90
2023-06-10T23:07:34.945Z,99.90
2023-06-10T23:10:03.216Z,99.90
2023-06-10T23:12:31.948Z,99.90
2023-06-10T23:15:00.081Z,99.90
2023-06-10T23:17:32.528Z,99.90
2023-06-10T23:20:02.718Z,99.90
2023-06-10T23:22:33.095Z,99.90
2023-06-10T23:25:03.808Z,99.90
2023-06-10T23:27:33.520Z,99.90
2023-06-10T23:30:02.425Z,99.90
2023-06-10T23:32:30.924Z,99.90
2023-06-10T23:35:00.509Z,99.90
2023-06-10T23:37:29.278Z,99.90
2023-06-10T23:40:02.478Z,99.90
2023-06-10T23:42:31.365Z,99.90
2023-06-10T23:45:04.440Z,99.90
2023-06-10T23:47:32.837Z,99.90
2023-06-10T23:50:01.151Z,99.90
2023-06-10T23:52:30.414Z,99.90
2023-06-10T23:55:00.447Z,99.90
2023-06-10T23:57:31.356Z,99.90
2023-06-10T23:59:59.520Z,99.90
